<?xml version="1.0" encoding="UTF-8" standalone="no" ?>
<gpx xmlns="http://www.topografix.com/GPX/1/1" xmlns:xsi="http://www.w3.org/2001/XMLSchema-instance" xsi:schemaLocation="http://www.topografix.com/GPX/1/1 http://www.topografix.com/GPX/1/1/gpx.xsd" version="1.1" creator="VisuGPX - https://www.visugpx.com">
  <metadata>
    <name>Montagne de Louquiers (realisé)</name>
    <desc><![CDATA[Montagne de Louquiers
Depuis Mons (Chapelle St Pierre, Megalithe de Riens)
En boucle, ]]></desc>
  </metadata>
  <trk>
    <name><![CDATA[2017-11-12 10:51]]></name>
    <desc><![CDATA[<p>Heure de départ: 11/12/2017 10:51<br/>Heure d'arrivée: 11/12/2017 15:27<br/>Distance: 11,6 km (04:35)<br/>Temps déplacement: 02:56<br/>Vitesse moyenne: 2,53 km/h<br/>Vitesse moyenne mouv.: 3,96 km/h<br/>Vitesse Max.: 7,23 km/h<br/>Altitude minimale: 570 m<br/>Altitude maximale: 1138 m<br/>Vitesse de montée: 355,1 m/h<br/>Vitesse de descente: -246,9 m/h<br/>Gain d'altitude: 659 m<br/>Perte d'altitude: -659 m<br/>Temps de montée: 01:51<br/>Temps de descente: 02:40<br/></p><hr align="center" width="480" style="height: 2px; width: 517px"/>]]></desc>
    <trkseg>
      <trkpt lat="43.69646" lon="6.72432">
        <ele>844.33</ele>
        <time>2017-11-12T09:51:22Z</time>
      </trkpt>
      <trkpt lat="43.69659" lon="6.72452">
        <ele>848.02</ele>
        <time>2017-11-12T09:57:14Z</time>
      </trkpt>
      <trkpt lat="43.69676" lon="6.72462">
        <ele>842.52</ele>
        <time>2017-11-12T09:57:32Z</time>
      </trkpt>
      <trkpt lat="43.69694" lon="6.7247">
        <ele>845.42</ele>
        <time>2017-11-12T09:57:55Z</time>
      </trkpt>
      <trkpt lat="43.69698" lon="6.72495">
        <ele>844.35</ele>
        <time>2017-11-12T09:59:38Z</time>
      </trkpt>
      <trkpt lat="43.69695" lon="6.72522">
        <ele>845.03</ele>
        <time>2017-11-12T09:59:58Z</time>
      </trkpt>
      <trkpt lat="43.69697" lon="6.72547">
        <ele>845.68</ele>
        <time>2017-11-12T10:00:13Z</time>
      </trkpt>
      <trkpt lat="43.69703" lon="6.72571">
        <ele>846.51</ele>
        <time>2017-11-12T10:00:31Z</time>
      </trkpt>
      <trkpt lat="43.69709" lon="6.72597">
        <ele>847.92</ele>
        <time>2017-11-12T10:00:49Z</time>
      </trkpt>
      <trkpt lat="43.69717" lon="6.7262">
        <ele>846.04</ele>
        <time>2017-11-12T10:01:11Z</time>
      </trkpt>
      <trkpt lat="43.69727" lon="6.72641">
        <ele>847.33</ele>
        <time>2017-11-12T10:01:26Z</time>
      </trkpt>
      <trkpt lat="43.69735" lon="6.72663">
        <ele>847.01</ele>
        <time>2017-11-12T10:01:45Z</time>
      </trkpt>
      <trkpt lat="43.69745" lon="6.72687">
        <ele>844.11</ele>
        <time>2017-11-12T10:02:02Z</time>
      </trkpt>
      <trkpt lat="43.69753" lon="6.7271">
        <ele>850.54</ele>
        <time>2017-11-12T10:02:21Z</time>
      </trkpt>
      <trkpt lat="43.69764" lon="6.72731">
        <ele>851.66</ele>
        <time>2017-11-12T10:02:34Z</time>
      </trkpt>
      <trkpt lat="43.69776" lon="6.7275">
        <ele>850.32</ele>
        <time>2017-11-12T10:02:52Z</time>
      </trkpt>
      <trkpt lat="43.69791" lon="6.72766">
        <ele>848.06</ele>
        <time>2017-11-12T10:03:09Z</time>
      </trkpt>
      <trkpt lat="43.69806" lon="6.7278">
        <ele>847.17</ele>
        <time>2017-11-12T10:04:04Z</time>
      </trkpt>
      <trkpt lat="43.69817" lon="6.728">
        <ele>844.73</ele>
        <time>2017-11-12T10:04:46Z</time>
      </trkpt>
      <trkpt lat="43.69831" lon="6.72817">
        <ele>851.32</ele>
        <time>2017-11-12T10:05:05Z</time>
      </trkpt>
      <trkpt lat="43.69849" lon="6.72814">
        <ele>848.45</ele>
        <time>2017-11-12T10:05:46Z</time>
      </trkpt>
      <trkpt lat="43.69866" lon="6.72803">
        <ele>849.43</ele>
        <time>2017-11-12T10:05:59Z</time>
      </trkpt>
      <trkpt lat="43.69885" lon="6.72799">
        <ele>848.48</ele>
        <time>2017-11-12T10:06:13Z</time>
      </trkpt>
      <trkpt lat="43.69901" lon="6.72811">
        <ele>849.18</ele>
        <time>2017-11-12T10:06:30Z</time>
      </trkpt>
      <trkpt lat="43.69919" lon="6.72812">
        <ele>848.58</ele>
        <time>2017-11-12T10:06:48Z</time>
      </trkpt>
      <trkpt lat="43.69938" lon="6.72814">
        <ele>848.78</ele>
        <time>2017-11-12T10:07:06Z</time>
      </trkpt>
      <trkpt lat="43.69956" lon="6.72819">
        <ele>846.27</ele>
        <time>2017-11-12T10:07:20Z</time>
      </trkpt>
      <trkpt lat="43.69974" lon="6.72824">
        <ele>850.64</ele>
        <time>2017-11-12T10:07:40Z</time>
      </trkpt>
      <trkpt lat="43.69992" lon="6.72836">
        <ele>854.22</ele>
        <time>2017-11-12T10:07:51Z</time>
      </trkpt>
      <trkpt lat="43.70008" lon="6.72848">
        <ele>859.28</ele>
        <time>2017-11-12T10:08:05Z</time>
      </trkpt>
      <trkpt lat="43.70019" lon="6.72868">
        <ele>857.83</ele>
        <time>2017-11-12T10:08:20Z</time>
      </trkpt>
      <trkpt lat="43.70026" lon="6.72893">
        <ele>860.54</ele>
        <time>2017-11-12T10:08:33Z</time>
      </trkpt>
      <trkpt lat="43.70037" lon="6.72915">
        <ele>860.97</ele>
        <time>2017-11-12T10:08:52Z</time>
      </trkpt>
      <trkpt lat="43.70051" lon="6.72932">
        <ele>859.64</ele>
        <time>2017-11-12T10:09:07Z</time>
      </trkpt>
      <trkpt lat="43.70063" lon="6.7295">
        <ele>860.62</ele>
        <time>2017-11-12T10:09:19Z</time>
      </trkpt>
      <trkpt lat="43.70079" lon="6.72963">
        <ele>866.58</ele>
        <time>2017-11-12T10:09:37Z</time>
      </trkpt>
      <trkpt lat="43.70089" lon="6.72984">
        <ele>862.3</ele>
        <time>2017-11-12T10:09:53Z</time>
      </trkpt>
      <trkpt lat="43.70099" lon="6.73005">
        <ele>865.26</ele>
        <time>2017-11-12T10:10:10Z</time>
      </trkpt>
      <trkpt lat="43.70108" lon="6.73028">
        <ele>865.99</ele>
        <time>2017-11-12T10:10:29Z</time>
      </trkpt>
      <trkpt lat="43.70118" lon="6.73051">
        <ele>869.82</ele>
        <time>2017-11-12T10:10:44Z</time>
      </trkpt>
      <trkpt lat="43.70133" lon="6.73066">
        <ele>870.44</ele>
        <time>2017-11-12T10:11:06Z</time>
      </trkpt>
      <trkpt lat="43.70144" lon="6.73086">
        <ele>874.96</ele>
        <time>2017-11-12T10:11:21Z</time>
      </trkpt>
      <trkpt lat="43.70158" lon="6.73104">
        <ele>880.12</ele>
        <time>2017-11-12T10:11:37Z</time>
      </trkpt>
      <trkpt lat="43.70174" lon="6.73118">
        <ele>884.45</ele>
        <time>2017-11-12T10:11:57Z</time>
      </trkpt>
      <trkpt lat="43.70194" lon="6.73117">
        <ele>882.94</ele>
        <time>2017-11-12T10:12:14Z</time>
      </trkpt>
      <trkpt lat="43.70208" lon="6.73134">
        <ele>893.58</ele>
        <time>2017-11-12T10:12:38Z</time>
      </trkpt>
      <trkpt lat="43.70226" lon="6.7314">
        <ele>893.63</ele>
        <time>2017-11-12T10:12:58Z</time>
      </trkpt>
      <trkpt lat="43.70245" lon="6.73142">
        <ele>898.49</ele>
        <time>2017-11-12T10:13:20Z</time>
      </trkpt>
      <trkpt lat="43.70248" lon="6.73166">
        <ele>902.07</ele>
        <time>2017-11-12T10:13:38Z</time>
      </trkpt>
      <trkpt lat="43.70251" lon="6.73191">
        <ele>907.04</ele>
        <time>2017-11-12T10:13:51Z</time>
      </trkpt>
      <trkpt lat="43.70263" lon="6.7321">
        <ele>903.82</ele>
        <time>2017-11-12T10:14:04Z</time>
      </trkpt>
      <trkpt lat="43.70271" lon="6.73232">
        <ele>906.85</ele>
        <time>2017-11-12T10:14:17Z</time>
      </trkpt>
      <trkpt lat="43.70283" lon="6.73251">
        <ele>908.94</ele>
        <time>2017-11-12T10:14:32Z</time>
      </trkpt>
      <trkpt lat="43.70288" lon="6.73275">
        <ele>911.71</ele>
        <time>2017-11-12T10:14:47Z</time>
      </trkpt>
      <trkpt lat="43.70297" lon="6.73298">
        <ele>908.03</ele>
        <time>2017-11-12T10:15:02Z</time>
      </trkpt>
      <trkpt lat="43.70307" lon="6.73321">
        <ele>904.42</ele>
        <time>2017-11-12T10:15:16Z</time>
      </trkpt>
      <trkpt lat="43.70321" lon="6.73336">
        <ele>904.95</ele>
        <time>2017-11-12T10:15:33Z</time>
      </trkpt>
      <trkpt lat="43.70333" lon="6.73357">
        <ele>904.03</ele>
        <time>2017-11-12T10:15:48Z</time>
      </trkpt>
      <trkpt lat="43.70345" lon="6.73377">
        <ele>906.26</ele>
        <time>2017-11-12T10:16:04Z</time>
      </trkpt>
      <trkpt lat="43.70356" lon="6.73397">
        <ele>908.63</ele>
        <time>2017-11-12T10:16:20Z</time>
      </trkpt>
      <trkpt lat="43.70367" lon="6.73417">
        <ele>909.56</ele>
        <time>2017-11-12T10:16:37Z</time>
      </trkpt>
      <trkpt lat="43.70384" lon="6.73427">
        <ele>908.65</ele>
        <time>2017-11-12T10:16:53Z</time>
      </trkpt>
      <trkpt lat="43.70403" lon="6.73428">
        <ele>906.36</ele>
        <time>2017-11-12T10:17:12Z</time>
      </trkpt>
      <trkpt lat="43.70421" lon="6.73439">
        <ele>903.6</ele>
        <time>2017-11-12T10:17:29Z</time>
      </trkpt>
      <trkpt lat="43.70439" lon="6.73439">
        <ele>904.25</ele>
        <time>2017-11-12T10:17:41Z</time>
      </trkpt>
      <trkpt lat="43.70456" lon="6.73444">
        <ele>898.41</ele>
        <time>2017-11-12T10:17:54Z</time>
      </trkpt>
      <trkpt lat="43.70473" lon="6.73452">
        <ele>901.94</ele>
        <time>2017-11-12T10:18:12Z</time>
      </trkpt>
      <trkpt lat="43.70491" lon="6.73456">
        <ele>900.65</ele>
        <time>2017-11-12T10:18:28Z</time>
      </trkpt>
      <trkpt lat="43.70509" lon="6.73465">
        <ele>894.29</ele>
        <time>2017-11-12T10:18:50Z</time>
      </trkpt>
      <trkpt lat="43.70522" lon="6.73484">
        <ele>892.44</ele>
        <time>2017-11-12T10:19:11Z</time>
      </trkpt>
      <trkpt lat="43.70538" lon="6.73496">
        <ele>891.42</ele>
        <time>2017-11-12T10:19:26Z</time>
      </trkpt>
      <trkpt lat="43.70556" lon="6.73498">
        <ele>891.52</ele>
        <time>2017-11-12T10:19:39Z</time>
      </trkpt>
      <trkpt lat="43.70575" lon="6.73508">
        <ele>887.42</ele>
        <time>2017-11-12T10:20:03Z</time>
      </trkpt>
      <trkpt lat="43.70593" lon="6.73508">
        <ele>887.03</ele>
        <time>2017-11-12T10:20:14Z</time>
      </trkpt>
      <trkpt lat="43.70611" lon="6.7352">
        <ele>885.35</ele>
        <time>2017-11-12T10:20:27Z</time>
      </trkpt>
      <trkpt lat="43.70613" lon="6.73547">
        <ele>889.95</ele>
        <time>2017-11-12T10:20:47Z</time>
      </trkpt>
      <trkpt lat="43.70632" lon="6.73549">
        <ele>888.24</ele>
        <time>2017-11-12T10:21:02Z</time>
      </trkpt>
      <trkpt lat="43.70639" lon="6.73572">
        <ele>893.65</ele>
        <time>2017-11-12T10:21:17Z</time>
      </trkpt>
      <trkpt lat="43.7065" lon="6.73593">
        <ele>888.31</ele>
        <time>2017-11-12T10:21:42Z</time>
      </trkpt>
      <trkpt lat="43.7066" lon="6.73613">
        <ele>884.56</ele>
        <time>2017-11-12T10:21:58Z</time>
      </trkpt>
      <trkpt lat="43.70668" lon="6.73637">
        <ele>885.65</ele>
        <time>2017-11-12T10:22:16Z</time>
      </trkpt>
      <trkpt lat="43.70677" lon="6.73659">
        <ele>886.67</ele>
        <time>2017-11-12T10:22:31Z</time>
      </trkpt>
      <trkpt lat="43.70681" lon="6.73684">
        <ele>886.36</ele>
        <time>2017-11-12T10:22:44Z</time>
      </trkpt>
      <trkpt lat="43.7069" lon="6.73708">
        <ele>885.74</ele>
        <time>2017-11-12T10:23:01Z</time>
      </trkpt>
      <trkpt lat="43.70703" lon="6.73729">
        <ele>884.62</ele>
        <time>2017-11-12T10:23:17Z</time>
      </trkpt>
      <trkpt lat="43.70712" lon="6.73751">
        <ele>882.33</ele>
        <time>2017-11-12T10:23:34Z</time>
      </trkpt>
      <trkpt lat="43.70721" lon="6.73774">
        <ele>885.3</ele>
        <time>2017-11-12T10:23:50Z</time>
      </trkpt>
      <trkpt lat="43.70729" lon="6.73797">
        <ele>881.21</ele>
        <time>2017-11-12T10:24:07Z</time>
      </trkpt>
      <trkpt lat="43.70736" lon="6.73819">
        <ele>883.33</ele>
        <time>2017-11-12T10:24:23Z</time>
      </trkpt>
      <trkpt lat="43.70751" lon="6.73835">
        <ele>879.5</ele>
        <time>2017-11-12T10:24:40Z</time>
      </trkpt>
      <trkpt lat="43.70766" lon="6.73849">
        <ele>879.63</ele>
        <time>2017-11-12T10:24:56Z</time>
      </trkpt>
      <trkpt lat="43.70784" lon="6.73856">
        <ele>877.63</ele>
        <time>2017-11-12T10:25:15Z</time>
      </trkpt>
      <trkpt lat="43.708" lon="6.73868">
        <ele>879.04</ele>
        <time>2017-11-12T10:25:34Z</time>
      </trkpt>
      <trkpt lat="43.70819" lon="6.73872">
        <ele>876.3</ele>
        <time>2017-11-12T10:25:45Z</time>
      </trkpt>
      <trkpt lat="43.70837" lon="6.73879">
        <ele>874.36</ele>
        <time>2017-11-12T10:26:03Z</time>
      </trkpt>
      <trkpt lat="43.70853" lon="6.73895">
        <ele>874.37</ele>
        <time>2017-11-12T10:26:17Z</time>
      </trkpt>
      <trkpt lat="43.70871" lon="6.73893">
        <ele>871.94</ele>
        <time>2017-11-12T10:26:32Z</time>
      </trkpt>
      <trkpt lat="43.7089" lon="6.73893">
        <ele>872.32</ele>
        <time>2017-11-12T10:26:49Z</time>
      </trkpt>
      <trkpt lat="43.70894" lon="6.73919">
        <ele>872.96</ele>
        <time>2017-11-12T10:27:18Z</time>
      </trkpt>
      <trkpt lat="43.70895" lon="6.73944">
        <ele>875.33</ele>
        <time>2017-11-12T10:28:03Z</time>
      </trkpt>
      <trkpt lat="43.70913" lon="6.73949">
        <ele>874.46</ele>
        <time>2017-11-12T10:28:20Z</time>
      </trkpt>
      <trkpt lat="43.70932" lon="6.73955">
        <ele>873.96</ele>
        <time>2017-11-12T10:28:40Z</time>
      </trkpt>
      <trkpt lat="43.7095" lon="6.73956">
        <ele>875.09</ele>
        <time>2017-11-12T10:28:53Z</time>
      </trkpt>
      <trkpt lat="43.70968" lon="6.73958">
        <ele>873.03</ele>
        <time>2017-11-12T10:29:08Z</time>
      </trkpt>
      <trkpt lat="43.70979" lon="6.73979">
        <ele>875.34</ele>
        <time>2017-11-12T10:29:25Z</time>
      </trkpt>
      <trkpt lat="43.70996" lon="6.73992">
        <ele>878.63</ele>
        <time>2017-11-12T10:29:46Z</time>
      </trkpt>
      <trkpt lat="43.7101" lon="6.74008">
        <ele>878.41</ele>
        <time>2017-11-12T10:30:06Z</time>
      </trkpt>
      <trkpt lat="43.71029" lon="6.74012">
        <ele>879.11</ele>
        <time>2017-11-12T10:30:28Z</time>
      </trkpt>
      <trkpt lat="43.71048" lon="6.74016">
        <ele>879.45</ele>
        <time>2017-11-12T10:30:48Z</time>
      </trkpt>
      <trkpt lat="43.71066" lon="6.74014">
        <ele>885.03</ele>
        <time>2017-11-12T10:31:18Z</time>
      </trkpt>
      <trkpt lat="43.71082" lon="6.74">
        <ele>895.2</ele>
        <time>2017-11-12T10:31:43Z</time>
      </trkpt>
      <trkpt lat="43.71089" lon="6.73977">
        <ele>902.63</ele>
        <time>2017-11-12T10:32:14Z</time>
      </trkpt>
      <trkpt lat="43.71086" lon="6.7395">
        <ele>904.1</ele>
        <time>2017-11-12T10:33:13Z</time>
      </trkpt>
      <trkpt lat="43.71101" lon="6.73935">
        <ele>908.33</ele>
        <time>2017-11-12T10:33:55Z</time>
      </trkpt>
      <trkpt lat="43.7112" lon="6.73932">
        <ele>909.03</ele>
        <time>2017-11-12T10:34:21Z</time>
      </trkpt>
      <trkpt lat="43.71138" lon="6.73934">
        <ele>913.39</ele>
        <time>2017-11-12T10:34:39Z</time>
      </trkpt>
      <trkpt lat="43.71155" lon="6.73917">
        <ele>913</ele>
        <time>2017-11-12T10:34:52Z</time>
      </trkpt>
      <trkpt lat="43.71172" lon="6.73928">
        <ele>914.71</ele>
        <time>2017-11-12T10:35:08Z</time>
      </trkpt>
      <trkpt lat="43.71179" lon="6.73954">
        <ele>913.34</ele>
        <time>2017-11-12T10:35:28Z</time>
      </trkpt>
      <trkpt lat="43.71186" lon="6.73978">
        <ele>905.35</ele>
        <time>2017-11-12T10:35:50Z</time>
      </trkpt>
      <trkpt lat="43.71183" lon="6.74002">
        <ele>906.48</ele>
        <time>2017-11-12T10:36:05Z</time>
      </trkpt>
      <trkpt lat="43.71191" lon="6.74028">
        <ele>906.36</ele>
        <time>2017-11-12T10:36:25Z</time>
      </trkpt>
      <trkpt lat="43.712" lon="6.7405">
        <ele>910.09</ele>
        <time>2017-11-12T10:36:43Z</time>
      </trkpt>
      <trkpt lat="43.71211" lon="6.74069">
        <ele>913.22</ele>
        <time>2017-11-12T10:37:02Z</time>
      </trkpt>
      <trkpt lat="43.71223" lon="6.74089">
        <ele>911.06</ele>
        <time>2017-11-12T10:37:21Z</time>
      </trkpt>
      <trkpt lat="43.71234" lon="6.74112">
        <ele>916.41</ele>
        <time>2017-11-12T10:37:44Z</time>
      </trkpt>
      <trkpt lat="43.71246" lon="6.7413">
        <ele>915.53</ele>
        <time>2017-11-12T10:38:04Z</time>
      </trkpt>
      <trkpt lat="43.71257" lon="6.74151">
        <ele>916.33</ele>
        <time>2017-11-12T10:38:22Z</time>
      </trkpt>
      <trkpt lat="43.7127" lon="6.74169">
        <ele>919.92</ele>
        <time>2017-11-12T10:38:41Z</time>
      </trkpt>
      <trkpt lat="43.71287" lon="6.74177">
        <ele>926.17</ele>
        <time>2017-11-12T10:39:05Z</time>
      </trkpt>
      <trkpt lat="43.71288" lon="6.74202">
        <ele>924.36</ele>
        <time>2017-11-12T10:39:44Z</time>
      </trkpt>
      <trkpt lat="43.71269" lon="6.74207">
        <ele>925.35</ele>
        <time>2017-11-12T10:39:59Z</time>
      </trkpt>
      <trkpt lat="43.7125" lon="6.74209">
        <ele>927.39</ele>
        <time>2017-11-12T10:40:13Z</time>
      </trkpt>
      <trkpt lat="43.71248" lon="6.74234">
        <ele>925.42</ele>
        <time>2017-11-12T10:40:39Z</time>
      </trkpt>
      <trkpt lat="43.71239" lon="6.74257">
        <ele>922.29</ele>
        <time>2017-11-12T10:40:51Z</time>
      </trkpt>
      <trkpt lat="43.71234" lon="6.74282">
        <ele>926.01</ele>
        <time>2017-11-12T10:41:05Z</time>
      </trkpt>
      <trkpt lat="43.71237" lon="6.74307">
        <ele>924.21</ele>
        <time>2017-11-12T10:41:23Z</time>
      </trkpt>
      <trkpt lat="43.71251" lon="6.74325">
        <ele>920.36</ele>
        <time>2017-11-12T10:41:53Z</time>
      </trkpt>
      <trkpt lat="43.71255" lon="6.74351">
        <ele>921.62</ele>
        <time>2017-11-12T10:42:08Z</time>
      </trkpt>
      <trkpt lat="43.71256" lon="6.74378">
        <ele>923.01</ele>
        <time>2017-11-12T10:42:24Z</time>
      </trkpt>
      <trkpt lat="43.71265" lon="6.74401">
        <ele>924.26</ele>
        <time>2017-11-12T10:42:38Z</time>
      </trkpt>
      <trkpt lat="43.71278" lon="6.74419">
        <ele>926.25</ele>
        <time>2017-11-12T10:42:57Z</time>
      </trkpt>
      <trkpt lat="43.71285" lon="6.74442">
        <ele>927.12</ele>
        <time>2017-11-12T10:43:24Z</time>
      </trkpt>
      <trkpt lat="43.71289" lon="6.74467">
        <ele>928.34</ele>
        <time>2017-11-12T10:43:41Z</time>
      </trkpt>
      <trkpt lat="43.71298" lon="6.74489">
        <ele>933.35</ele>
        <time>2017-11-12T10:43:59Z</time>
      </trkpt>
      <trkpt lat="43.71315" lon="6.745">
        <ele>934.95</ele>
        <time>2017-11-12T10:44:19Z</time>
      </trkpt>
      <trkpt lat="43.71333" lon="6.74505">
        <ele>930.36</ele>
        <time>2017-11-12T10:44:40Z</time>
      </trkpt>
      <trkpt lat="43.71344" lon="6.74525">
        <ele>936.94</ele>
        <time>2017-11-12T10:45:00Z</time>
      </trkpt>
      <trkpt lat="43.71348" lon="6.7455">
        <ele>940.33</ele>
        <time>2017-11-12T10:45:16Z</time>
      </trkpt>
      <trkpt lat="43.7136" lon="6.7457">
        <ele>943.05</ele>
        <time>2017-11-12T10:46:22Z</time>
      </trkpt>
      <trkpt lat="43.71375" lon="6.74585">
        <ele>944.03</ele>
        <time>2017-11-12T10:46:42Z</time>
      </trkpt>
      <trkpt lat="43.71389" lon="6.74602">
        <ele>945.42</ele>
        <time>2017-11-12T10:46:59Z</time>
      </trkpt>
      <trkpt lat="43.71401" lon="6.7462">
        <ele>950.85</ele>
        <time>2017-11-12T10:47:17Z</time>
      </trkpt>
      <trkpt lat="43.7142" lon="6.74625">
        <ele>949.1</ele>
        <time>2017-11-12T10:47:38Z</time>
      </trkpt>
      <trkpt lat="43.71438" lon="6.74631">
        <ele>952.31</ele>
        <time>2017-11-12T10:47:59Z</time>
      </trkpt>
      <trkpt lat="43.71455" lon="6.74637">
        <ele>952.33</ele>
        <time>2017-11-12T10:48:20Z</time>
      </trkpt>
      <trkpt lat="43.71467" lon="6.74658">
        <ele>955.01</ele>
        <time>2017-11-12T10:48:38Z</time>
      </trkpt>
      <trkpt lat="43.71481" lon="6.74675">
        <ele>958.54</ele>
        <time>2017-11-12T10:48:58Z</time>
      </trkpt>
      <trkpt lat="43.71498" lon="6.74683">
        <ele>962.19</ele>
        <time>2017-11-12T10:49:18Z</time>
      </trkpt>
      <trkpt lat="43.71516" lon="6.74692">
        <ele>964.41</ele>
        <time>2017-11-12T10:49:37Z</time>
      </trkpt>
      <trkpt lat="43.71533" lon="6.74699">
        <ele>968.24</ele>
        <time>2017-11-12T10:49:55Z</time>
      </trkpt>
      <trkpt lat="43.71552" lon="6.74703">
        <ele>968.31</ele>
        <time>2017-11-12T10:50:12Z</time>
      </trkpt>
      <trkpt lat="43.71569" lon="6.74715">
        <ele>970.33</ele>
        <time>2017-11-12T10:50:30Z</time>
      </trkpt>
      <trkpt lat="43.71584" lon="6.7473">
        <ele>974.02</ele>
        <time>2017-11-12T10:50:47Z</time>
      </trkpt>
      <trkpt lat="43.71598" lon="6.74747">
        <ele>974.03</ele>
        <time>2017-11-12T10:51:06Z</time>
      </trkpt>
      <trkpt lat="43.71616" lon="6.7475">
        <ele>975.03</ele>
        <time>2017-11-12T10:52:42Z</time>
      </trkpt>
      <trkpt lat="43.71635" lon="6.74755">
        <ele>973.34</ele>
        <time>2017-11-12T10:53:01Z</time>
      </trkpt>
      <trkpt lat="43.71652" lon="6.74765">
        <ele>975.34</ele>
        <time>2017-11-12T10:53:44Z</time>
      </trkpt>
      <trkpt lat="43.71646" lon="6.74789">
        <ele>974.33</ele>
        <time>2017-11-12T10:54:06Z</time>
      </trkpt>
      <trkpt lat="43.71631" lon="6.74805">
        <ele>972.03</ele>
        <time>2017-11-12T10:54:25Z</time>
      </trkpt>
      <trkpt lat="43.71617" lon="6.7482">
        <ele>970.36</ele>
        <time>2017-11-12T10:54:42Z</time>
      </trkpt>
      <trkpt lat="43.71598" lon="6.74816">
        <ele>970.61</ele>
        <time>2017-11-12T10:54:57Z</time>
      </trkpt>
      <trkpt lat="43.71582" lon="6.74804">
        <ele>970.31</ele>
        <time>2017-11-12T10:55:16Z</time>
      </trkpt>
      <trkpt lat="43.71584" lon="6.74829">
        <ele>974.34</ele>
        <time>2017-11-12T10:57:35Z</time>
      </trkpt>
      <trkpt lat="43.71586" lon="6.74854">
        <ele>973.28</ele>
        <time>2017-11-12T10:57:55Z</time>
      </trkpt>
      <trkpt lat="43.71576" lon="6.74876">
        <ele>973.03</ele>
        <time>2017-11-12T10:58:42Z</time>
      </trkpt>
      <trkpt lat="43.71563" lon="6.74895">
        <ele>967.65</ele>
        <time>2017-11-12T10:59:01Z</time>
      </trkpt>
      <trkpt lat="43.71548" lon="6.74911">
        <ele>968.25</ele>
        <time>2017-11-12T10:59:19Z</time>
      </trkpt>
      <trkpt lat="43.71531" lon="6.74917">
        <ele>972.23</ele>
        <time>2017-11-12T10:59:47Z</time>
      </trkpt>
      <trkpt lat="43.71514" lon="6.7493">
        <ele>971.61</ele>
        <time>2017-11-12T11:00:02Z</time>
      </trkpt>
      <trkpt lat="43.71501" lon="6.74949">
        <ele>974.62</ele>
        <time>2017-11-12T11:00:18Z</time>
      </trkpt>
      <trkpt lat="43.71483" lon="6.74953">
        <ele>970.94</ele>
        <time>2017-11-12T11:00:35Z</time>
      </trkpt>
      <trkpt lat="43.71466" lon="6.74961">
        <ele>970.33</ele>
        <time>2017-11-12T11:00:51Z</time>
      </trkpt>
      <trkpt lat="43.71448" lon="6.74969">
        <ele>973.33</ele>
        <time>2017-11-12T11:01:07Z</time>
      </trkpt>
      <trkpt lat="43.71437" lon="6.74989">
        <ele>970.11</ele>
        <time>2017-11-12T11:01:22Z</time>
      </trkpt>
      <trkpt lat="43.71425" lon="6.75007">
        <ele>973.87</ele>
        <time>2017-11-12T11:01:40Z</time>
      </trkpt>
      <trkpt lat="43.71412" lon="6.75024">
        <ele>976.08</ele>
        <time>2017-11-12T11:01:53Z</time>
      </trkpt>
      <trkpt lat="43.71408" lon="6.75051">
        <ele>976.48</ele>
        <time>2017-11-12T11:02:08Z</time>
      </trkpt>
      <trkpt lat="43.71401" lon="6.75078">
        <ele>976.2</ele>
        <time>2017-11-12T11:02:27Z</time>
      </trkpt>
      <trkpt lat="43.71384" lon="6.75089">
        <ele>978.17</ele>
        <time>2017-11-12T11:02:44Z</time>
      </trkpt>
      <trkpt lat="43.71372" lon="6.75109">
        <ele>983.87</ele>
        <time>2017-11-12T11:03:01Z</time>
      </trkpt>
      <trkpt lat="43.71355" lon="6.75123">
        <ele>985.87</ele>
        <time>2017-11-12T11:03:16Z</time>
      </trkpt>
      <trkpt lat="43.71342" lon="6.7514">
        <ele>984.82</ele>
        <time>2017-11-12T11:03:36Z</time>
      </trkpt>
      <trkpt lat="43.71326" lon="6.75157">
        <ele>989.97</ele>
        <time>2017-11-12T11:03:54Z</time>
      </trkpt>
      <trkpt lat="43.71312" lon="6.75172">
        <ele>994.88</ele>
        <time>2017-11-12T11:04:13Z</time>
      </trkpt>
      <trkpt lat="43.71298" lon="6.75188">
        <ele>997.18</ele>
        <time>2017-11-12T11:04:30Z</time>
      </trkpt>
      <trkpt lat="43.71285" lon="6.75207">
        <ele>997.88</ele>
        <time>2017-11-12T11:04:48Z</time>
      </trkpt>
      <trkpt lat="43.71269" lon="6.7522">
        <ele>996.12</ele>
        <time>2017-11-12T11:05:07Z</time>
      </trkpt>
      <trkpt lat="43.71256" lon="6.75237">
        <ele>996.2</ele>
        <time>2017-11-12T11:05:24Z</time>
      </trkpt>
      <trkpt lat="43.71244" lon="6.75255">
        <ele>1001.45</ele>
        <time>2017-11-12T11:05:42Z</time>
      </trkpt>
      <trkpt lat="43.71229" lon="6.75269">
        <ele>1003.45</ele>
        <time>2017-11-12T11:05:59Z</time>
      </trkpt>
      <trkpt lat="43.71213" lon="6.75283">
        <ele>1005.2</ele>
        <time>2017-11-12T11:06:15Z</time>
      </trkpt>
      <trkpt lat="43.71196" lon="6.75292">
        <ele>1005.81</ele>
        <time>2017-11-12T11:06:34Z</time>
      </trkpt>
      <trkpt lat="43.71185" lon="6.75313">
        <ele>1009.18</ele>
        <time>2017-11-12T11:06:54Z</time>
      </trkpt>
      <trkpt lat="43.71169" lon="6.75325">
        <ele>1014.79</ele>
        <time>2017-11-12T11:07:14Z</time>
      </trkpt>
      <trkpt lat="43.71153" lon="6.75338">
        <ele>1017.88</ele>
        <time>2017-11-12T11:07:33Z</time>
      </trkpt>
      <trkpt lat="43.71136" lon="6.7535">
        <ele>1022.11</ele>
        <time>2017-11-12T11:07:58Z</time>
      </trkpt>
      <trkpt lat="43.71123" lon="6.75367">
        <ele>1024.2</ele>
        <time>2017-11-12T11:08:18Z</time>
      </trkpt>
      <trkpt lat="43.71107" lon="6.7538">
        <ele>1027</ele>
        <time>2017-11-12T11:08:39Z</time>
      </trkpt>
      <trkpt lat="43.71089" lon="6.75387">
        <ele>1030.12</ele>
        <time>2017-11-12T11:09:01Z</time>
      </trkpt>
      <trkpt lat="43.7108" lon="6.75409">
        <ele>1027.48</ele>
        <time>2017-11-12T11:09:23Z</time>
      </trkpt>
      <trkpt lat="43.71067" lon="6.75429">
        <ele>1035.36</ele>
        <time>2017-11-12T11:09:44Z</time>
      </trkpt>
      <trkpt lat="43.71054" lon="6.75446">
        <ele>1040.11</ele>
        <time>2017-11-12T11:10:05Z</time>
      </trkpt>
      <trkpt lat="43.71037" lon="6.75458">
        <ele>1041.88</ele>
        <time>2017-11-12T11:10:26Z</time>
      </trkpt>
      <trkpt lat="43.71019" lon="6.75458">
        <ele>1046.87</ele>
        <time>2017-11-12T11:10:50Z</time>
      </trkpt>
      <trkpt lat="43.71" lon="6.75457">
        <ele>1048.66</ele>
        <time>2017-11-12T11:11:13Z</time>
      </trkpt>
      <trkpt lat="43.70983" lon="6.75452">
        <ele>1055.13</ele>
        <time>2017-11-12T11:11:35Z</time>
      </trkpt>
      <trkpt lat="43.70965" lon="6.75455">
        <ele>1058.87</ele>
        <time>2017-11-12T11:11:59Z</time>
      </trkpt>
      <trkpt lat="43.70947" lon="6.75458">
        <ele>1061.89</ele>
        <time>2017-11-12T11:12:25Z</time>
      </trkpt>
      <trkpt lat="43.70929" lon="6.75467">
        <ele>1066.06</ele>
        <time>2017-11-12T11:12:51Z</time>
      </trkpt>
      <trkpt lat="43.70912" lon="6.75476">
        <ele>1071.09</ele>
        <time>2017-11-12T11:13:13Z</time>
      </trkpt>
      <trkpt lat="43.70893" lon="6.75478">
        <ele>1072.45</ele>
        <time>2017-11-12T11:13:34Z</time>
      </trkpt>
      <trkpt lat="43.70874" lon="6.75483">
        <ele>1077.59</ele>
        <time>2017-11-12T11:13:56Z</time>
      </trkpt>
      <trkpt lat="43.70855" lon="6.75486">
        <ele>1081.18</ele>
        <time>2017-11-12T11:14:13Z</time>
      </trkpt>
      <trkpt lat="43.70837" lon="6.75487">
        <ele>1085.85</ele>
        <time>2017-11-12T11:14:34Z</time>
      </trkpt>
      <trkpt lat="43.7082" lon="6.75496">
        <ele>1087.87</ele>
        <time>2017-11-12T11:14:55Z</time>
      </trkpt>
      <trkpt lat="43.70802" lon="6.75506">
        <ele>1089.88</ele>
        <time>2017-11-12T11:15:17Z</time>
      </trkpt>
      <trkpt lat="43.70786" lon="6.75519">
        <ele>1088.94</ele>
        <time>2017-11-12T11:15:30Z</time>
      </trkpt>
      <trkpt lat="43.7077" lon="6.7553">
        <ele>1092.1</ele>
        <time>2017-11-12T11:15:46Z</time>
      </trkpt>
      <trkpt lat="43.70753" lon="6.75544">
        <ele>1096.87</ele>
        <time>2017-11-12T11:16:01Z</time>
      </trkpt>
      <trkpt lat="43.70746" lon="6.75567">
        <ele>1094.94</ele>
        <time>2017-11-12T11:16:21Z</time>
      </trkpt>
      <trkpt lat="43.70734" lon="6.75589">
        <ele>1093.47</ele>
        <time>2017-11-12T11:18:36Z</time>
      </trkpt>
      <trkpt lat="43.70717" lon="6.75599">
        <ele>1090.97</ele>
        <time>2017-11-12T11:18:51Z</time>
      </trkpt>
      <trkpt lat="43.70698" lon="6.75603">
        <ele>1092.1</ele>
        <time>2017-11-12T11:19:07Z</time>
      </trkpt>
      <trkpt lat="43.70679" lon="6.75602">
        <ele>1086.87</ele>
        <time>2017-11-12T11:19:26Z</time>
      </trkpt>
      <trkpt lat="43.70661" lon="6.75596">
        <ele>1085.18</ele>
        <time>2017-11-12T11:19:40Z</time>
      </trkpt>
      <trkpt lat="43.70642" lon="6.75597">
        <ele>1081.57</ele>
        <time>2017-11-12T11:19:56Z</time>
      </trkpt>
      <trkpt lat="43.70624" lon="6.75595">
        <ele>1083.32</ele>
        <time>2017-11-12T11:20:11Z</time>
      </trkpt>
      <trkpt lat="43.70605" lon="6.75592">
        <ele>1087.15</ele>
        <time>2017-11-12T11:20:27Z</time>
      </trkpt>
      <trkpt lat="43.70587" lon="6.75583">
        <ele>1085.23</ele>
        <time>2017-11-12T11:20:44Z</time>
      </trkpt>
      <trkpt lat="43.7057" lon="6.7557">
        <ele>1086.2</ele>
        <time>2017-11-12T11:21:05Z</time>
      </trkpt>
      <trkpt lat="43.70561" lon="6.75547">
        <ele>1090.15</ele>
        <time>2017-11-12T11:21:24Z</time>
      </trkpt>
      <trkpt lat="43.7056" lon="6.75521">
        <ele>1092.17</ele>
        <time>2017-11-12T11:21:43Z</time>
      </trkpt>
      <trkpt lat="43.70552" lon="6.75499">
        <ele>1096.87</ele>
        <time>2017-11-12T11:22:02Z</time>
      </trkpt>
      <trkpt lat="43.70541" lon="6.75479">
        <ele>1100.15</ele>
        <time>2017-11-12T11:22:24Z</time>
      </trkpt>
      <trkpt lat="43.70525" lon="6.75468">
        <ele>1104.85</ele>
        <time>2017-11-12T11:22:47Z</time>
      </trkpt>
      <trkpt lat="43.70511" lon="6.75449">
        <ele>1110.58</ele>
        <time>2017-11-12T11:23:10Z</time>
      </trkpt>
      <trkpt lat="43.70506" lon="6.75423">
        <ele>1111.09</ele>
        <time>2017-11-12T11:23:29Z</time>
      </trkpt>
      <trkpt lat="43.70489" lon="6.75413">
        <ele>1113.18</ele>
        <time>2017-11-12T11:23:49Z</time>
      </trkpt>
      <trkpt lat="43.70471" lon="6.75409">
        <ele>1117.16</ele>
        <time>2017-11-12T11:24:12Z</time>
      </trkpt>
      <trkpt lat="43.70452" lon="6.75406">
        <ele>1120.18</ele>
        <time>2017-11-12T11:24:34Z</time>
      </trkpt>
      <trkpt lat="43.70434" lon="6.75401">
        <ele>1121.15</ele>
        <time>2017-11-12T11:24:53Z</time>
      </trkpt>
      <trkpt lat="43.70418" lon="6.75388">
        <ele>1126.86</ele>
        <time>2017-11-12T11:25:12Z</time>
      </trkpt>
      <trkpt lat="43.70401" lon="6.75379">
        <ele>1128.86</ele>
        <time>2017-11-12T11:25:32Z</time>
      </trkpt>
      <trkpt lat="43.70383" lon="6.7537">
        <ele>1129.17</ele>
        <time>2017-11-12T11:25:50Z</time>
      </trkpt>
      <trkpt lat="43.70364" lon="6.75366">
        <ele>1128.11</ele>
        <time>2017-11-12T11:26:11Z</time>
      </trkpt>
      <trkpt lat="43.70348" lon="6.75353">
        <ele>1132.1</ele>
        <time>2017-11-12T11:26:26Z</time>
      </trkpt>
      <trkpt lat="43.70331" lon="6.75346">
        <ele>1133.08</ele>
        <time>2017-11-12T11:26:44Z</time>
      </trkpt>
      <trkpt lat="43.70314" lon="6.75336">
        <ele>1134.18</ele>
        <time>2017-11-12T11:27:02Z</time>
      </trkpt>
      <trkpt lat="43.70296" lon="6.75328">
        <ele>1138.17</ele>
        <time>2017-11-12T11:27:20Z</time>
      </trkpt>
      <trkpt lat="43.70278" lon="6.75328">
        <ele>1138.27</ele>
        <time>2017-11-12T11:27:41Z</time>
      </trkpt>
      <trkpt lat="43.7026" lon="6.75333">
        <ele>1138.18</ele>
        <time>2017-11-12T11:28:38Z</time>
      </trkpt>
      <trkpt lat="43.70242" lon="6.75323">
        <ele>1138.88</ele>
        <time>2017-11-12T11:29:16Z</time>
      </trkpt>
      <trkpt lat="43.70225" lon="6.75332">
        <ele>1134.86</ele>
        <time>2017-11-12T11:29:51Z</time>
      </trkpt>
      <trkpt lat="43.7022" lon="6.75308">
        <ele>1134.16</ele>
        <time>2017-11-12T12:17:43Z</time>
      </trkpt>
      <trkpt lat="43.70204" lon="6.75295">
        <ele>1131.26</ele>
        <time>2017-11-12T12:18:09Z</time>
      </trkpt>
      <trkpt lat="43.7019" lon="6.7528">
        <ele>1122.9</ele>
        <time>2017-11-12T12:18:46Z</time>
      </trkpt>
      <trkpt lat="43.70172" lon="6.75277">
        <ele>1117.45</ele>
        <time>2017-11-12T12:19:21Z</time>
      </trkpt>
      <trkpt lat="43.70154" lon="6.75274">
        <ele>1112.09</ele>
        <time>2017-11-12T12:19:53Z</time>
      </trkpt>
      <trkpt lat="43.70137" lon="6.75264">
        <ele>1110.88</ele>
        <time>2017-11-12T12:20:19Z</time>
      </trkpt>
      <trkpt lat="43.7012" lon="6.75255">
        <ele>1102.18</ele>
        <time>2017-11-12T12:20:56Z</time>
      </trkpt>
      <trkpt lat="43.70102" lon="6.75248">
        <ele>1096.91</ele>
        <time>2017-11-12T12:21:23Z</time>
      </trkpt>
      <trkpt lat="43.70084" lon="6.75252">
        <ele>1096.21</ele>
        <time>2017-11-12T12:21:46Z</time>
      </trkpt>
      <trkpt lat="43.70076" lon="6.75229">
        <ele>1094.18</ele>
        <time>2017-11-12T12:22:04Z</time>
      </trkpt>
      <trkpt lat="43.70073" lon="6.75203">
        <ele>1092.26</ele>
        <time>2017-11-12T12:22:26Z</time>
      </trkpt>
      <trkpt lat="43.70075" lon="6.75178">
        <ele>1092.91</ele>
        <time>2017-11-12T12:22:42Z</time>
      </trkpt>
      <trkpt lat="43.70077" lon="6.75153">
        <ele>1088.92</ele>
        <time>2017-11-12T12:23:01Z</time>
      </trkpt>
      <trkpt lat="43.70075" lon="6.75126">
        <ele>1085.1</ele>
        <time>2017-11-12T12:23:21Z</time>
      </trkpt>
      <trkpt lat="43.70061" lon="6.75109">
        <ele>1079.73</ele>
        <time>2017-11-12T12:23:38Z</time>
      </trkpt>
      <trkpt lat="43.70049" lon="6.75089">
        <ele>1078.09</ele>
        <time>2017-11-12T12:23:56Z</time>
      </trkpt>
      <trkpt lat="43.70032" lon="6.75079">
        <ele>1076.89</ele>
        <time>2017-11-12T12:24:18Z</time>
      </trkpt>
      <trkpt lat="43.70013" lon="6.7508">
        <ele>1075.97</ele>
        <time>2017-11-12T12:24:33Z</time>
      </trkpt>
      <trkpt lat="43.69995" lon="6.75075">
        <ele>1080.27</ele>
        <time>2017-11-12T12:24:48Z</time>
      </trkpt>
      <trkpt lat="43.69977" lon="6.7508">
        <ele>1079.87</ele>
        <time>2017-11-12T12:25:08Z</time>
      </trkpt>
      <trkpt lat="43.69974" lon="6.75105">
        <ele>1079.2</ele>
        <time>2017-11-12T12:25:28Z</time>
      </trkpt>
      <trkpt lat="43.69963" lon="6.75125">
        <ele>1080.09</ele>
        <time>2017-11-12T12:25:45Z</time>
      </trkpt>
      <trkpt lat="43.6995" lon="6.75144">
        <ele>1079.46</ele>
        <time>2017-11-12T12:26:03Z</time>
      </trkpt>
      <trkpt lat="43.69941" lon="6.75167">
        <ele>1072.55</ele>
        <time>2017-11-12T12:26:25Z</time>
      </trkpt>
      <trkpt lat="43.69923" lon="6.75163">
        <ele>1075.24</ele>
        <time>2017-11-12T12:26:49Z</time>
      </trkpt>
      <trkpt lat="43.69905" lon="6.75151">
        <ele>1070.85</ele>
        <time>2017-11-12T12:27:06Z</time>
      </trkpt>
      <trkpt lat="43.69897" lon="6.75128">
        <ele>1063.27</ele>
        <time>2017-11-12T12:27:27Z</time>
      </trkpt>
      <trkpt lat="43.69881" lon="6.75113">
        <ele>1059.49</ele>
        <time>2017-11-12T12:27:50Z</time>
      </trkpt>
      <trkpt lat="43.69863" lon="6.75109">
        <ele>1056.46</ele>
        <time>2017-11-12T12:28:07Z</time>
      </trkpt>
      <trkpt lat="43.69844" lon="6.75108">
        <ele>1048.6</ele>
        <time>2017-11-12T12:28:31Z</time>
      </trkpt>
      <trkpt lat="43.69824" lon="6.75109">
        <ele>1043.95</ele>
        <time>2017-11-12T12:28:59Z</time>
      </trkpt>
      <trkpt lat="43.69806" lon="6.75102">
        <ele>1045.8</ele>
        <time>2017-11-12T12:29:27Z</time>
      </trkpt>
      <trkpt lat="43.69789" lon="6.75091">
        <ele>1038.18</ele>
        <time>2017-11-12T12:30:00Z</time>
      </trkpt>
      <trkpt lat="43.69776" lon="6.75072">
        <ele>1032.25</ele>
        <time>2017-11-12T12:30:20Z</time>
      </trkpt>
      <trkpt lat="43.69776" lon="6.75046">
        <ele>1021.33</ele>
        <time>2017-11-12T12:30:45Z</time>
      </trkpt>
      <trkpt lat="43.69764" lon="6.75026">
        <ele>1018.6</ele>
        <time>2017-11-12T12:31:11Z</time>
      </trkpt>
      <trkpt lat="43.69757" lon="6.75004">
        <ele>1014.48</ele>
        <time>2017-11-12T12:31:32Z</time>
      </trkpt>
      <trkpt lat="43.69762" lon="6.74979">
        <ele>1012.51</ele>
        <time>2017-11-12T12:31:50Z</time>
      </trkpt>
      <trkpt lat="43.69781" lon="6.74971">
        <ele>1009.56</ele>
        <time>2017-11-12T12:32:10Z</time>
      </trkpt>
      <trkpt lat="43.69796" lon="6.74956">
        <ele>1010.97</ele>
        <time>2017-11-12T12:32:29Z</time>
      </trkpt>
      <trkpt lat="43.6981" lon="6.74939">
        <ele>1011.77</ele>
        <time>2017-11-12T12:32:47Z</time>
      </trkpt>
      <trkpt lat="43.69828" lon="6.74931">
        <ele>1008.01</ele>
        <time>2017-11-12T12:33:05Z</time>
      </trkpt>
      <trkpt lat="43.69845" lon="6.74922">
        <ele>998.61</ele>
        <time>2017-11-12T12:33:35Z</time>
      </trkpt>
      <trkpt lat="43.69863" lon="6.74917">
        <ele>1000.18</ele>
        <time>2017-11-12T12:33:50Z</time>
      </trkpt>
      <trkpt lat="43.69881" lon="6.74912">
        <ele>992.45</ele>
        <time>2017-11-12T12:34:09Z</time>
      </trkpt>
      <trkpt lat="43.699" lon="6.74907">
        <ele>997.18</ele>
        <time>2017-11-12T12:34:26Z</time>
      </trkpt>
      <trkpt lat="43.69915" lon="6.74894">
        <ele>1001.69</ele>
        <time>2017-11-12T12:34:44Z</time>
      </trkpt>
      <trkpt lat="43.69932" lon="6.74884">
        <ele>991.36</ele>
        <time>2017-11-12T12:35:07Z</time>
      </trkpt>
      <trkpt lat="43.69947" lon="6.74867">
        <ele>982.97</ele>
        <time>2017-11-12T12:35:33Z</time>
      </trkpt>
      <trkpt lat="43.69958" lon="6.74846">
        <ele>979.65</ele>
        <time>2017-11-12T12:35:48Z</time>
      </trkpt>
      <trkpt lat="43.69965" lon="6.74822">
        <ele>978.77</ele>
        <time>2017-11-12T12:36:04Z</time>
      </trkpt>
      <trkpt lat="43.69967" lon="6.74797">
        <ele>962.34</ele>
        <time>2017-11-12T12:36:41Z</time>
      </trkpt>
      <trkpt lat="43.69961" lon="6.74773">
        <ele>954.57</ele>
        <time>2017-11-12T12:37:10Z</time>
      </trkpt>
      <trkpt lat="43.69961" lon="6.74746">
        <ele>952.93</ele>
        <time>2017-11-12T12:37:26Z</time>
      </trkpt>
      <trkpt lat="43.69974" lon="6.74728">
        <ele>950.44</ele>
        <time>2017-11-12T12:37:53Z</time>
      </trkpt>
      <trkpt lat="43.69986" lon="6.74708">
        <ele>939.73</ele>
        <time>2017-11-12T12:38:18Z</time>
      </trkpt>
      <trkpt lat="43.69988" lon="6.74683">
        <ele>938.4</ele>
        <time>2017-11-12T12:38:51Z</time>
      </trkpt>
      <trkpt lat="43.69975" lon="6.74666">
        <ele>930.78</ele>
        <time>2017-11-12T12:39:10Z</time>
      </trkpt>
      <trkpt lat="43.69961" lon="6.74649">
        <ele>931.3</ele>
        <time>2017-11-12T12:39:26Z</time>
      </trkpt>
      <trkpt lat="43.69957" lon="6.74624">
        <ele>923.07</ele>
        <time>2017-11-12T12:40:00Z</time>
      </trkpt>
      <trkpt lat="43.69949" lon="6.74599">
        <ele>919.98</ele>
        <time>2017-11-12T12:40:16Z</time>
      </trkpt>
      <trkpt lat="43.69942" lon="6.74576">
        <ele>915.52</ele>
        <time>2017-11-12T12:40:37Z</time>
      </trkpt>
      <trkpt lat="43.69925" lon="6.74566">
        <ele>903.58</ele>
        <time>2017-11-12T12:41:03Z</time>
      </trkpt>
      <trkpt lat="43.6991" lon="6.74552">
        <ele>899.03</ele>
        <time>2017-11-12T12:41:33Z</time>
      </trkpt>
      <trkpt lat="43.69913" lon="6.74526">
        <ele>890.42</ele>
        <time>2017-11-12T12:42:58Z</time>
      </trkpt>
      <trkpt lat="43.69903" lon="6.74505">
        <ele>884.62</ele>
        <time>2017-11-12T12:43:20Z</time>
      </trkpt>
      <trkpt lat="43.69896" lon="6.74481">
        <ele>878.27</ele>
        <time>2017-11-12T12:43:43Z</time>
      </trkpt>
      <trkpt lat="43.69877" lon="6.74481">
        <ele>871.57</ele>
        <time>2017-11-12T12:43:58Z</time>
      </trkpt>
      <trkpt lat="43.69863" lon="6.74463">
        <ele>870.42</ele>
        <time>2017-11-12T12:44:18Z</time>
      </trkpt>
      <trkpt lat="43.69845" lon="6.74456">
        <ele>867.72</ele>
        <time>2017-11-12T12:44:37Z</time>
      </trkpt>
      <trkpt lat="43.6983" lon="6.74443">
        <ele>866.94</ele>
        <time>2017-11-12T12:44:54Z</time>
      </trkpt>
      <trkpt lat="43.69811" lon="6.74436">
        <ele>856.6</ele>
        <time>2017-11-12T12:45:14Z</time>
      </trkpt>
      <trkpt lat="43.69794" lon="6.74427">
        <ele>854.52</ele>
        <time>2017-11-12T12:45:35Z</time>
      </trkpt>
      <trkpt lat="43.69775" lon="6.74419">
        <ele>855.01</ele>
        <time>2017-11-12T12:46:00Z</time>
      </trkpt>
      <trkpt lat="43.69757" lon="6.74412">
        <ele>856.03</ele>
        <time>2017-11-12T12:46:17Z</time>
      </trkpt>
      <trkpt lat="43.6974" lon="6.74404">
        <ele>858.1</ele>
        <time>2017-11-12T12:46:33Z</time>
      </trkpt>
      <trkpt lat="43.69724" lon="6.74394">
        <ele>857.35</ele>
        <time>2017-11-12T12:48:22Z</time>
      </trkpt>
      <trkpt lat="43.69741" lon="6.74389">
        <ele>854.34</ele>
        <time>2017-11-12T12:49:48Z</time>
      </trkpt>
      <trkpt lat="43.69745" lon="6.74364">
        <ele>850.34</ele>
        <time>2017-11-12T12:50:23Z</time>
      </trkpt>
      <trkpt lat="43.69759" lon="6.74348">
        <ele>845.34</ele>
        <time>2017-11-12T12:50:52Z</time>
      </trkpt>
      <trkpt lat="43.69747" lon="6.74327">
        <ele>838.63</ele>
        <time>2017-11-12T12:51:52Z</time>
      </trkpt>
      <trkpt lat="43.69732" lon="6.74314">
        <ele>836.67</ele>
        <time>2017-11-12T12:52:03Z</time>
      </trkpt>
      <trkpt lat="43.69725" lon="6.7429">
        <ele>826.35</ele>
        <time>2017-11-12T12:52:56Z</time>
      </trkpt>
      <trkpt lat="43.69725" lon="6.74264">
        <ele>821.43</ele>
        <time>2017-11-12T12:53:38Z</time>
      </trkpt>
      <trkpt lat="43.69714" lon="6.74242">
        <ele>810.54</ele>
        <time>2017-11-12T12:54:15Z</time>
      </trkpt>
      <trkpt lat="43.69706" lon="6.7422">
        <ele>799.37</ele>
        <time>2017-11-12T12:54:54Z</time>
      </trkpt>
      <trkpt lat="43.69702" lon="6.74194">
        <ele>790.57</ele>
        <time>2017-11-12T12:57:09Z</time>
      </trkpt>
      <trkpt lat="43.69686" lon="6.74181">
        <ele>772.61</ele>
        <time>2017-11-12T12:57:51Z</time>
      </trkpt>
      <trkpt lat="43.69669" lon="6.7417">
        <ele>768.33</ele>
        <time>2017-11-12T12:58:48Z</time>
      </trkpt>
      <trkpt lat="43.69651" lon="6.74171">
        <ele>757.91</ele>
        <time>2017-11-12T12:58:59Z</time>
      </trkpt>
      <trkpt lat="43.69633" lon="6.74165">
        <ele>754.24</ele>
        <time>2017-11-12T13:01:59Z</time>
      </trkpt>
      <trkpt lat="43.69618" lon="6.74179">
        <ele>743.92</ele>
        <time>2017-11-12T13:03:44Z</time>
      </trkpt>
      <trkpt lat="43.69599" lon="6.74181">
        <ele>743.33</ele>
        <time>2017-11-12T13:04:05Z</time>
      </trkpt>
      <trkpt lat="43.69581" lon="6.74184">
        <ele>743.63</ele>
        <time>2017-11-12T13:04:27Z</time>
      </trkpt>
      <trkpt lat="43.69562" lon="6.74185">
        <ele>739.31</ele>
        <time>2017-11-12T13:04:47Z</time>
      </trkpt>
      <trkpt lat="43.69544" lon="6.74184">
        <ele>736.41</ele>
        <time>2017-11-12T13:05:16Z</time>
      </trkpt>
      <trkpt lat="43.69525" lon="6.74182">
        <ele>733.42</ele>
        <time>2017-11-12T13:05:34Z</time>
      </trkpt>
      <trkpt lat="43.69506" lon="6.74187">
        <ele>724.15</ele>
        <time>2017-11-12T13:05:56Z</time>
      </trkpt>
      <trkpt lat="43.69488" lon="6.74191">
        <ele>719.33</ele>
        <time>2017-11-12T13:06:39Z</time>
      </trkpt>
      <trkpt lat="43.69487" lon="6.74165">
        <ele>714.22</ele>
        <time>2017-11-12T13:07:06Z</time>
      </trkpt>
      <trkpt lat="43.69469" lon="6.74161">
        <ele>705.94</ele>
        <time>2017-11-12T13:07:48Z</time>
      </trkpt>
      <trkpt lat="43.69451" lon="6.74161">
        <ele>698.31</ele>
        <time>2017-11-12T13:08:37Z</time>
      </trkpt>
      <trkpt lat="43.69432" lon="6.74166">
        <ele>690.37</ele>
        <time>2017-11-12T13:08:59Z</time>
      </trkpt>
      <trkpt lat="43.69417" lon="6.7418">
        <ele>684.34</ele>
        <time>2017-11-12T13:09:31Z</time>
      </trkpt>
      <trkpt lat="43.69401" lon="6.74193">
        <ele>682.15</ele>
        <time>2017-11-12T13:09:48Z</time>
      </trkpt>
      <trkpt lat="43.69385" lon="6.74208">
        <ele>672.53</ele>
        <time>2017-11-12T13:10:11Z</time>
      </trkpt>
      <trkpt lat="43.69367" lon="6.74219">
        <ele>675.01</ele>
        <time>2017-11-12T13:10:49Z</time>
      </trkpt>
      <trkpt lat="43.69351" lon="6.7423">
        <ele>670.94</ele>
        <time>2017-11-12T13:11:01Z</time>
      </trkpt>
      <trkpt lat="43.69333" lon="6.7424">
        <ele>669.36</ele>
        <time>2017-11-12T13:11:18Z</time>
      </trkpt>
      <trkpt lat="43.69313" lon="6.74247">
        <ele>662.34</ele>
        <time>2017-11-12T13:11:42Z</time>
      </trkpt>
      <trkpt lat="43.69306" lon="6.7427">
        <ele>656.08</ele>
        <time>2017-11-12T13:12:05Z</time>
      </trkpt>
      <trkpt lat="43.69296" lon="6.74292">
        <ele>658.58</ele>
        <time>2017-11-12T13:12:24Z</time>
      </trkpt>
      <trkpt lat="43.69284" lon="6.7431">
        <ele>657.54</ele>
        <time>2017-11-12T13:12:43Z</time>
      </trkpt>
      <trkpt lat="43.69267" lon="6.74324">
        <ele>658.41</ele>
        <time>2017-11-12T13:12:59Z</time>
      </trkpt>
      <trkpt lat="43.69255" lon="6.74343">
        <ele>660.02</ele>
        <time>2017-11-12T13:13:23Z</time>
      </trkpt>
      <trkpt lat="43.69241" lon="6.74361">
        <ele>650.9</ele>
        <time>2017-11-12T13:13:42Z</time>
      </trkpt>
      <trkpt lat="43.69223" lon="6.74372">
        <ele>655.5</ele>
        <time>2017-11-12T13:13:54Z</time>
      </trkpt>
      <trkpt lat="43.69209" lon="6.74387">
        <ele>656.13</ele>
        <time>2017-11-12T13:14:06Z</time>
      </trkpt>
      <trkpt lat="43.69192" lon="6.74398">
        <ele>655.24</ele>
        <time>2017-11-12T13:14:23Z</time>
      </trkpt>
      <trkpt lat="43.69174" lon="6.74405">
        <ele>652.43</ele>
        <time>2017-11-12T13:14:45Z</time>
      </trkpt>
      <trkpt lat="43.69155" lon="6.74404">
        <ele>640.65</ele>
        <time>2017-11-12T13:15:20Z</time>
      </trkpt>
      <trkpt lat="43.69136" lon="6.74404">
        <ele>636.51</ele>
        <time>2017-11-12T13:15:38Z</time>
      </trkpt>
      <trkpt lat="43.69119" lon="6.74411">
        <ele>629.37</ele>
        <time>2017-11-12T13:15:58Z</time>
      </trkpt>
      <trkpt lat="43.69101" lon="6.74421">
        <ele>623.07</ele>
        <time>2017-11-12T13:16:18Z</time>
      </trkpt>
      <trkpt lat="43.69083" lon="6.74418">
        <ele>619.43</ele>
        <time>2017-11-12T13:16:59Z</time>
      </trkpt>
      <trkpt lat="43.69065" lon="6.74417">
        <ele>619.2</ele>
        <time>2017-11-12T13:17:10Z</time>
      </trkpt>
      <trkpt lat="43.69048" lon="6.74406">
        <ele>609.15</ele>
        <time>2017-11-12T13:17:28Z</time>
      </trkpt>
      <trkpt lat="43.69039" lon="6.74383">
        <ele>603.37</ele>
        <time>2017-11-12T13:17:47Z</time>
      </trkpt>
      <trkpt lat="43.6903" lon="6.7436">
        <ele>609.32</ele>
        <time>2017-11-12T13:18:13Z</time>
      </trkpt>
      <trkpt lat="43.6903" lon="6.74333">
        <ele>605.33</ele>
        <time>2017-11-12T13:18:38Z</time>
      </trkpt>
      <trkpt lat="43.69016" lon="6.74316">
        <ele>602.72</ele>
        <time>2017-11-12T13:18:49Z</time>
      </trkpt>
      <trkpt lat="43.69004" lon="6.74296">
        <ele>591.9</ele>
        <time>2017-11-12T13:19:09Z</time>
      </trkpt>
      <trkpt lat="43.68997" lon="6.74272">
        <ele>590.12</ele>
        <time>2017-11-12T13:19:25Z</time>
      </trkpt>
      <trkpt lat="43.68983" lon="6.74255">
        <ele>593.1</ele>
        <time>2017-11-12T13:21:30Z</time>
      </trkpt>
      <trkpt lat="43.68989" lon="6.74231">
        <ele>577.4</ele>
        <time>2017-11-12T13:21:59Z</time>
      </trkpt>
      <trkpt lat="43.68995" lon="6.74208">
        <ele>577.75</ele>
        <time>2017-11-12T13:23:22Z</time>
      </trkpt>
      <trkpt lat="43.69014" lon="6.74201">
        <ele>582.02</ele>
        <time>2017-11-12T13:23:56Z</time>
      </trkpt>
      <trkpt lat="43.69028" lon="6.74218">
        <ele>582.19</ele>
        <time>2017-11-12T13:24:10Z</time>
      </trkpt>
      <trkpt lat="43.69046" lon="6.74229">
        <ele>576.77</ele>
        <time>2017-11-12T13:24:40Z</time>
      </trkpt>
      <trkpt lat="43.69064" lon="6.74239">
        <ele>576.35</ele>
        <time>2017-11-12T13:25:05Z</time>
      </trkpt>
      <trkpt lat="43.69081" lon="6.7425">
        <ele>573</ele>
        <time>2017-11-12T13:25:19Z</time>
      </trkpt>
      <trkpt lat="43.691" lon="6.74258">
        <ele>573.51</ele>
        <time>2017-11-12T13:25:32Z</time>
      </trkpt>
      <trkpt lat="43.69117" lon="6.74245">
        <ele>574.01</ele>
        <time>2017-11-12T13:25:57Z</time>
      </trkpt>
      <trkpt lat="43.69127" lon="6.74224">
        <ele>570.4</ele>
        <time>2017-11-12T13:26:16Z</time>
      </trkpt>
      <trkpt lat="43.69139" lon="6.74205">
        <ele>579.94</ele>
        <time>2017-11-12T13:26:52Z</time>
      </trkpt>
      <trkpt lat="43.69146" lon="6.7418">
        <ele>592.96</ele>
        <time>2017-11-12T13:27:38Z</time>
      </trkpt>
      <trkpt lat="43.69157" lon="6.7416">
        <ele>604.98</ele>
        <time>2017-11-12T13:28:46Z</time>
      </trkpt>
      <trkpt lat="43.69169" lon="6.7414">
        <ele>599.49</ele>
        <time>2017-11-12T13:29:02Z</time>
      </trkpt>
      <trkpt lat="43.69176" lon="6.74117">
        <ele>602.92</ele>
        <time>2017-11-12T13:29:24Z</time>
      </trkpt>
      <trkpt lat="43.6919" lon="6.74101">
        <ele>603.15</ele>
        <time>2017-11-12T13:29:37Z</time>
      </trkpt>
      <trkpt lat="43.69202" lon="6.74083">
        <ele>611.26</ele>
        <time>2017-11-12T13:30:13Z</time>
      </trkpt>
      <trkpt lat="43.69186" lon="6.74071">
        <ele>628.23</ele>
        <time>2017-11-12T13:32:57Z</time>
      </trkpt>
      <trkpt lat="43.6918" lon="6.74046">
        <ele>633.55</ele>
        <time>2017-11-12T13:33:42Z</time>
      </trkpt>
      <trkpt lat="43.69175" lon="6.74022">
        <ele>647.54</ele>
        <time>2017-11-12T13:34:35Z</time>
      </trkpt>
      <trkpt lat="43.69169" lon="6.73995">
        <ele>640.84</ele>
        <time>2017-11-12T13:35:14Z</time>
      </trkpt>
      <trkpt lat="43.6916" lon="6.7397">
        <ele>642.24</ele>
        <time>2017-11-12T13:35:29Z</time>
      </trkpt>
      <trkpt lat="43.69165" lon="6.73946">
        <ele>651.94</ele>
        <time>2017-11-12T13:35:50Z</time>
      </trkpt>
      <trkpt lat="43.69152" lon="6.73963">
        <ele>663.65</ele>
        <time>2017-11-12T13:36:32Z</time>
      </trkpt>
      <trkpt lat="43.69134" lon="6.7397">
        <ele>675.32</ele>
        <time>2017-11-12T13:37:13Z</time>
      </trkpt>
      <trkpt lat="43.69121" lon="6.73988">
        <ele>677.43</ele>
        <time>2017-11-12T13:37:39Z</time>
      </trkpt>
      <trkpt lat="43.69104" lon="6.74001">
        <ele>684.42</ele>
        <time>2017-11-12T13:38:18Z</time>
      </trkpt>
      <trkpt lat="43.69085" lon="6.74004">
        <ele>683.13</ele>
        <time>2017-11-12T13:38:33Z</time>
      </trkpt>
      <trkpt lat="43.69068" lon="6.73997">
        <ele>686.27</ele>
        <time>2017-11-12T13:38:53Z</time>
      </trkpt>
      <trkpt lat="43.69051" lon="6.73986">
        <ele>692.01</ele>
        <time>2017-11-12T13:39:26Z</time>
      </trkpt>
      <trkpt lat="43.69033" lon="6.73978">
        <ele>695.39</ele>
        <time>2017-11-12T13:39:46Z</time>
      </trkpt>
      <trkpt lat="43.69016" lon="6.73969">
        <ele>700.02</ele>
        <time>2017-11-12T13:40:03Z</time>
      </trkpt>
      <trkpt lat="43.68998" lon="6.73967">
        <ele>703.04</ele>
        <time>2017-11-12T13:40:24Z</time>
      </trkpt>
      <trkpt lat="43.68979" lon="6.73967">
        <ele>705.05</ele>
        <time>2017-11-12T13:40:39Z</time>
      </trkpt>
      <trkpt lat="43.68962" lon="6.73959">
        <ele>699.1</ele>
        <time>2017-11-12T13:40:57Z</time>
      </trkpt>
      <trkpt lat="43.68943" lon="6.73957">
        <ele>703.31</ele>
        <time>2017-11-12T13:41:18Z</time>
      </trkpt>
      <trkpt lat="43.68925" lon="6.73957">
        <ele>704.26</ele>
        <time>2017-11-12T13:41:34Z</time>
      </trkpt>
      <trkpt lat="43.68906" lon="6.7395">
        <ele>699.16</ele>
        <time>2017-11-12T13:41:58Z</time>
      </trkpt>
      <trkpt lat="43.68888" lon="6.73952">
        <ele>698.73</ele>
        <time>2017-11-12T13:42:09Z</time>
      </trkpt>
      <trkpt lat="43.6887" lon="6.73956">
        <ele>699.21</ele>
        <time>2017-11-12T13:42:22Z</time>
      </trkpt>
      <trkpt lat="43.68852" lon="6.73958">
        <ele>694.34</ele>
        <time>2017-11-12T13:42:38Z</time>
      </trkpt>
      <trkpt lat="43.68834" lon="6.73955">
        <ele>689.25</ele>
        <time>2017-11-12T13:42:58Z</time>
      </trkpt>
      <trkpt lat="43.68814" lon="6.73957">
        <ele>692.23</ele>
        <time>2017-11-12T13:43:11Z</time>
      </trkpt>
      <trkpt lat="43.68811" lon="6.73932">
        <ele>690.36</ele>
        <time>2017-11-12T13:44:23Z</time>
      </trkpt>
      <trkpt lat="43.68822" lon="6.73911">
        <ele>696.25</ele>
        <time>2017-11-12T13:44:48Z</time>
      </trkpt>
      <trkpt lat="43.68827" lon="6.73887">
        <ele>700.02</ele>
        <time>2017-11-12T13:45:16Z</time>
      </trkpt>
      <trkpt lat="43.68835" lon="6.73862">
        <ele>702.32</ele>
        <time>2017-11-12T13:45:38Z</time>
      </trkpt>
      <trkpt lat="43.68853" lon="6.73854">
        <ele>707.42</ele>
        <time>2017-11-12T13:46:10Z</time>
      </trkpt>
      <trkpt lat="43.68863" lon="6.73832">
        <ele>711.01</ele>
        <time>2017-11-12T13:46:40Z</time>
      </trkpt>
      <trkpt lat="43.68862" lon="6.73806">
        <ele>717.3</ele>
        <time>2017-11-12T13:46:58Z</time>
      </trkpt>
      <trkpt lat="43.68871" lon="6.73784">
        <ele>721.1</ele>
        <time>2017-11-12T13:47:34Z</time>
      </trkpt>
      <trkpt lat="43.68873" lon="6.73758">
        <ele>723.21</ele>
        <time>2017-11-12T13:47:52Z</time>
      </trkpt>
      <trkpt lat="43.68888" lon="6.73745">
        <ele>730.03</ele>
        <time>2017-11-12T13:48:21Z</time>
      </trkpt>
      <trkpt lat="43.68906" lon="6.7375">
        <ele>736.3</ele>
        <time>2017-11-12T13:48:52Z</time>
      </trkpt>
      <trkpt lat="43.68925" lon="6.73742">
        <ele>736.92</ele>
        <time>2017-11-12T13:49:17Z</time>
      </trkpt>
      <trkpt lat="43.68938" lon="6.73723">
        <ele>738.18</ele>
        <time>2017-11-12T13:49:49Z</time>
      </trkpt>
      <trkpt lat="43.68952" lon="6.73706">
        <ele>744.32</ele>
        <time>2017-11-12T13:50:09Z</time>
      </trkpt>
      <trkpt lat="43.68941" lon="6.73684">
        <ele>754.06</ele>
        <time>2017-11-12T13:51:46Z</time>
      </trkpt>
      <trkpt lat="43.68926" lon="6.73668">
        <ele>750.01</ele>
        <time>2017-11-12T13:52:36Z</time>
      </trkpt>
      <trkpt lat="43.68943" lon="6.7368">
        <ele>750.26</ele>
        <time>2017-11-12T13:53:23Z</time>
      </trkpt>
      <trkpt lat="43.68956" lon="6.73699">
        <ele>752.32</ele>
        <time>2017-11-12T13:53:38Z</time>
      </trkpt>
      <trkpt lat="43.68971" lon="6.73714">
        <ele>752.24</ele>
        <time>2017-11-12T13:53:53Z</time>
      </trkpt>
      <trkpt lat="43.68987" lon="6.73727">
        <ele>752.61</ele>
        <time>2017-11-12T13:54:07Z</time>
      </trkpt>
      <trkpt lat="43.69002" lon="6.73743">
        <ele>754.14</ele>
        <time>2017-11-12T13:54:22Z</time>
      </trkpt>
      <trkpt lat="43.69018" lon="6.73755">
        <ele>755.35</ele>
        <time>2017-11-12T13:54:37Z</time>
      </trkpt>
      <trkpt lat="43.69037" lon="6.73759">
        <ele>754</ele>
        <time>2017-11-12T13:54:55Z</time>
      </trkpt>
      <trkpt lat="43.69055" lon="6.73751">
        <ele>755.04</ele>
        <time>2017-11-12T13:55:12Z</time>
      </trkpt>
      <trkpt lat="43.69059" lon="6.73725">
        <ele>757.31</ele>
        <time>2017-11-12T13:55:29Z</time>
      </trkpt>
      <trkpt lat="43.69058" lon="6.73699">
        <ele>757.39</ele>
        <time>2017-11-12T13:55:47Z</time>
      </trkpt>
      <trkpt lat="43.69062" lon="6.73674">
        <ele>759.31</ele>
        <time>2017-11-12T13:56:04Z</time>
      </trkpt>
      <trkpt lat="43.6907" lon="6.73651">
        <ele>762.54</ele>
        <time>2017-11-12T13:56:22Z</time>
      </trkpt>
      <trkpt lat="43.69074" lon="6.73625">
        <ele>763.3</ele>
        <time>2017-11-12T13:56:55Z</time>
      </trkpt>
      <trkpt lat="43.69076" lon="6.736">
        <ele>761.45</ele>
        <time>2017-11-12T13:57:13Z</time>
      </trkpt>
      <trkpt lat="43.69078" lon="6.73574">
        <ele>756.4</ele>
        <time>2017-11-12T13:57:29Z</time>
      </trkpt>
      <trkpt lat="43.69079" lon="6.73548">
        <ele>756.39</ele>
        <time>2017-11-12T13:57:45Z</time>
      </trkpt>
      <trkpt lat="43.69078" lon="6.73522">
        <ele>760.3</ele>
        <time>2017-11-12T13:58:01Z</time>
      </trkpt>
      <trkpt lat="43.69085" lon="6.73497">
        <ele>763.33</ele>
        <time>2017-11-12T13:58:15Z</time>
      </trkpt>
      <trkpt lat="43.69085" lon="6.73471">
        <ele>763.33</ele>
        <time>2017-11-12T13:58:51Z</time>
      </trkpt>
      <trkpt lat="43.69072" lon="6.73453">
        <ele>762.36</ele>
        <time>2017-11-12T13:59:10Z</time>
      </trkpt>
      <trkpt lat="43.69057" lon="6.73436">
        <ele>762.4</ele>
        <time>2017-11-12T13:59:23Z</time>
      </trkpt>
      <trkpt lat="43.69055" lon="6.73411">
        <ele>763.03</ele>
        <time>2017-11-12T13:59:39Z</time>
      </trkpt>
      <trkpt lat="43.69074" lon="6.73408">
        <ele>765.24</ele>
        <time>2017-11-12T13:59:55Z</time>
      </trkpt>
      <trkpt lat="43.69083" lon="6.73387">
        <ele>768.34</ele>
        <time>2017-11-12T14:00:11Z</time>
      </trkpt>
      <trkpt lat="43.69089" lon="6.73362">
        <ele>768.91</ele>
        <time>2017-11-12T14:00:31Z</time>
      </trkpt>
      <trkpt lat="43.69093" lon="6.73337">
        <ele>770.95</ele>
        <time>2017-11-12T14:00:46Z</time>
      </trkpt>
      <trkpt lat="43.69096" lon="6.73312">
        <ele>769.55</ele>
        <time>2017-11-12T14:01:01Z</time>
      </trkpt>
      <trkpt lat="43.69101" lon="6.73287">
        <ele>771.04</ele>
        <time>2017-11-12T14:01:18Z</time>
      </trkpt>
      <trkpt lat="43.69099" lon="6.73261">
        <ele>774.51</ele>
        <time>2017-11-12T14:01:33Z</time>
      </trkpt>
      <trkpt lat="43.69102" lon="6.73235">
        <ele>774.12</ele>
        <time>2017-11-12T14:01:47Z</time>
      </trkpt>
      <trkpt lat="43.69108" lon="6.73212">
        <ele>778.33</ele>
        <time>2017-11-12T14:02:02Z</time>
      </trkpt>
      <trkpt lat="43.69122" lon="6.73195">
        <ele>785.33</ele>
        <time>2017-11-12T14:02:46Z</time>
      </trkpt>
      <trkpt lat="43.69128" lon="6.73171">
        <ele>789.24</ele>
        <time>2017-11-12T14:03:04Z</time>
      </trkpt>
      <trkpt lat="43.69138" lon="6.73149">
        <ele>788.36</ele>
        <time>2017-11-12T14:03:22Z</time>
      </trkpt>
      <trkpt lat="43.69152" lon="6.73134">
        <ele>788.12</ele>
        <time>2017-11-12T14:03:37Z</time>
      </trkpt>
      <trkpt lat="43.69166" lon="6.73117">
        <ele>792.94</ele>
        <time>2017-11-12T14:03:55Z</time>
      </trkpt>
      <trkpt lat="43.69184" lon="6.73121">
        <ele>797.01</ele>
        <time>2017-11-12T14:04:24Z</time>
      </trkpt>
      <trkpt lat="43.69203" lon="6.73121">
        <ele>802.39</ele>
        <time>2017-11-12T14:04:41Z</time>
      </trkpt>
      <trkpt lat="43.69221" lon="6.73122">
        <ele>803.33</ele>
        <time>2017-11-12T14:05:02Z</time>
      </trkpt>
      <trkpt lat="43.69236" lon="6.73107">
        <ele>802.33</ele>
        <time>2017-11-12T14:05:22Z</time>
      </trkpt>
      <trkpt lat="43.69241" lon="6.73082">
        <ele>803.13</ele>
        <time>2017-11-12T14:05:41Z</time>
      </trkpt>
      <trkpt lat="43.69247" lon="6.73058">
        <ele>807.03</ele>
        <time>2017-11-12T14:05:57Z</time>
      </trkpt>
      <trkpt lat="43.69253" lon="6.73035">
        <ele>808.31</ele>
        <time>2017-11-12T14:06:13Z</time>
      </trkpt>
      <trkpt lat="43.69267" lon="6.73018">
        <ele>807.24</ele>
        <time>2017-11-12T14:06:30Z</time>
      </trkpt>
      <trkpt lat="43.69285" lon="6.73011">
        <ele>809.57</ele>
        <time>2017-11-12T14:06:47Z</time>
      </trkpt>
      <trkpt lat="43.69303" lon="6.73005">
        <ele>805.64</ele>
        <time>2017-11-12T14:07:03Z</time>
      </trkpt>
      <trkpt lat="43.69315" lon="6.72987">
        <ele>807.26</ele>
        <time>2017-11-12T14:07:17Z</time>
      </trkpt>
      <trkpt lat="43.69328" lon="6.72966">
        <ele>813.01</ele>
        <time>2017-11-12T14:07:31Z</time>
      </trkpt>
      <trkpt lat="43.69337" lon="6.72943">
        <ele>813.37</ele>
        <time>2017-11-12T14:07:51Z</time>
      </trkpt>
      <trkpt lat="43.69345" lon="6.7292">
        <ele>815.62</ele>
        <time>2017-11-12T14:08:08Z</time>
      </trkpt>
      <trkpt lat="43.69349" lon="6.72895">
        <ele>814.31</ele>
        <time>2017-11-12T14:08:24Z</time>
      </trkpt>
      <trkpt lat="43.69349" lon="6.72868">
        <ele>813.02</ele>
        <time>2017-11-12T14:08:37Z</time>
      </trkpt>
      <trkpt lat="43.69346" lon="6.72842">
        <ele>814.03</ele>
        <time>2017-11-12T14:08:51Z</time>
      </trkpt>
      <trkpt lat="43.69351" lon="6.72817">
        <ele>811.43</ele>
        <time>2017-11-12T14:09:06Z</time>
      </trkpt>
      <trkpt lat="43.69366" lon="6.72802">
        <ele>814.31</ele>
        <time>2017-11-12T14:09:21Z</time>
      </trkpt>
      <trkpt lat="43.69379" lon="6.72783">
        <ele>817.36</ele>
        <time>2017-11-12T14:09:38Z</time>
      </trkpt>
      <trkpt lat="43.69397" lon="6.72786">
        <ele>815.34</ele>
        <time>2017-11-12T14:09:53Z</time>
      </trkpt>
      <trkpt lat="43.69416" lon="6.72785">
        <ele>813.34</ele>
        <time>2017-11-12T14:10:10Z</time>
      </trkpt>
      <trkpt lat="43.69434" lon="6.72776">
        <ele>815.91</ele>
        <time>2017-11-12T14:10:24Z</time>
      </trkpt>
      <trkpt lat="43.6945" lon="6.72763">
        <ele>817.58</ele>
        <time>2017-11-12T14:10:37Z</time>
      </trkpt>
      <trkpt lat="43.69466" lon="6.72752">
        <ele>820.12</ele>
        <time>2017-11-12T14:10:49Z</time>
      </trkpt>
      <trkpt lat="43.69483" lon="6.72741">
        <ele>818.4</ele>
        <time>2017-11-12T14:11:05Z</time>
      </trkpt>
      <trkpt lat="43.695" lon="6.72731">
        <ele>819.33</ele>
        <time>2017-11-12T14:11:20Z</time>
      </trkpt>
      <trkpt lat="43.69515" lon="6.72715">
        <ele>820.73</ele>
        <time>2017-11-12T14:11:33Z</time>
      </trkpt>
      <trkpt lat="43.69529" lon="6.727">
        <ele>822.04</ele>
        <time>2017-11-12T14:11:46Z</time>
      </trkpt>
      <trkpt lat="43.69544" lon="6.72686">
        <ele>825.91</ele>
        <time>2017-11-12T14:12:03Z</time>
      </trkpt>
      <trkpt lat="43.69551" lon="6.72662">
        <ele>827.34</ele>
        <time>2017-11-12T14:12:34Z</time>
      </trkpt>
      <trkpt lat="43.69555" lon="6.72636">
        <ele>825.35</ele>
        <time>2017-11-12T14:12:51Z</time>
      </trkpt>
      <trkpt lat="43.69547" lon="6.72612">
        <ele>822.27</ele>
        <time>2017-11-12T14:13:09Z</time>
      </trkpt>
      <trkpt lat="43.6955" lon="6.72586">
        <ele>824.3</ele>
        <time>2017-11-12T14:13:28Z</time>
      </trkpt>
      <trkpt lat="43.69566" lon="6.72571">
        <ele>825.32</ele>
        <time>2017-11-12T14:13:47Z</time>
      </trkpt>
      <trkpt lat="43.69581" lon="6.72556">
        <ele>831.22</ele>
        <time>2017-11-12T14:14:06Z</time>
      </trkpt>
      <trkpt lat="43.69593" lon="6.72536">
        <ele>835.01</ele>
        <time>2017-11-12T14:14:26Z</time>
      </trkpt>
      <trkpt lat="43.69609" lon="6.72522">
        <ele>833.93</ele>
        <time>2017-11-12T14:14:44Z</time>
      </trkpt>
      <trkpt lat="43.69618" lon="6.725">
        <ele>832.33</ele>
        <time>2017-11-12T14:15:05Z</time>
      </trkpt>
      <trkpt lat="43.69632" lon="6.72484">
        <ele>837.43</ele>
        <time>2017-11-12T14:15:22Z</time>
      </trkpt>
      <trkpt lat="43.69643" lon="6.72465">
        <ele>841.34</ele>
        <time>2017-11-12T14:15:47Z</time>
      </trkpt>
      <trkpt lat="43.69656" lon="6.72447">
        <ele>844.03</ele>
        <time>2017-11-12T14:16:14Z</time>
      </trkpt>
      <trkpt lat="43.69672" lon="6.72457">
        <ele>845.34</ele>
        <time>2017-11-12T14:16:33Z</time>
      </trkpt>
      <trkpt lat="43.69689" lon="6.72469">
        <ele>846.01</ele>
        <time>2017-11-12T14:16:48Z</time>
      </trkpt>
      <trkpt lat="43.69706" lon="6.72477">
        <ele>848.15</ele>
        <time>2017-11-12T14:17:05Z</time>
      </trkpt>
      <trkpt lat="43.69725" lon="6.72481">
        <ele>848.33</ele>
        <time>2017-11-12T14:17:22Z</time>
      </trkpt>
      <trkpt lat="43.6974" lon="6.72495">
        <ele>851.21</ele>
        <time>2017-11-12T14:17:36Z</time>
      </trkpt>
      <trkpt lat="43.69754" lon="6.72513">
        <ele>854.22</ele>
        <time>2017-11-12T14:17:51Z</time>
      </trkpt>
      <trkpt lat="43.6977" lon="6.72523">
        <ele>852.63</ele>
        <time>2017-11-12T14:18:06Z</time>
      </trkpt>
      <trkpt lat="43.69795" lon="6.72535">
        <ele>844.21</ele>
        <time>2017-11-12T14:18:42Z</time>
      </trkpt>
      <trkpt lat="43.69806" lon="6.72556">
        <ele>850.12</ele>
        <time>2017-11-12T14:18:59Z</time>
      </trkpt>
      <trkpt lat="43.69811" lon="6.7258">
        <ele>847.16</ele>
        <time>2017-11-12T14:19:15Z</time>
      </trkpt>
      <trkpt lat="43.69801" lon="6.72603">
        <ele>856.03</ele>
        <time>2017-11-12T14:19:29Z</time>
      </trkpt>
      <trkpt lat="43.69798" lon="6.72628">
        <ele>859.03</ele>
        <time>2017-11-12T14:19:44Z</time>
      </trkpt>
      <trkpt lat="43.698" lon="6.72654">
        <ele>859.75</ele>
        <time>2017-11-12T14:20:03Z</time>
      </trkpt>
      <trkpt lat="43.69801" lon="6.72628">
        <ele>859.31</ele>
        <time>2017-11-12T14:24:01Z</time>
      </trkpt>
      <trkpt lat="43.69802" lon="6.72602">
        <ele>859.4</ele>
        <time>2017-11-12T14:24:24Z</time>
      </trkpt>
      <trkpt lat="43.69805" lon="6.72576">
        <ele>857.42</ele>
        <time>2017-11-12T14:24:40Z</time>
      </trkpt>
      <trkpt lat="43.69801" lon="6.7255">
        <ele>855.93</ele>
        <time>2017-11-12T14:24:54Z</time>
      </trkpt>
      <trkpt lat="43.69785" lon="6.72537">
        <ele>845.52</ele>
        <time>2017-11-12T14:25:12Z</time>
      </trkpt>
      <trkpt lat="43.69768" lon="6.72523">
        <ele>847.94</ele>
        <time>2017-11-12T14:25:27Z</time>
      </trkpt>
      <trkpt lat="43.69753" lon="6.72508">
        <ele>848.34</ele>
        <time>2017-11-12T14:25:42Z</time>
      </trkpt>
      <trkpt lat="43.69741" lon="6.72489">
        <ele>846.43</ele>
        <time>2017-11-12T14:25:59Z</time>
      </trkpt>
      <trkpt lat="43.69724" lon="6.72479">
        <ele>848.27</ele>
        <time>2017-11-12T14:26:12Z</time>
      </trkpt>
      <trkpt lat="43.69705" lon="6.72477">
        <ele>848.33</ele>
        <time>2017-11-12T14:26:28Z</time>
      </trkpt>
      <trkpt lat="43.69687" lon="6.72471">
        <ele>846.33</ele>
        <time>2017-11-12T14:26:42Z</time>
      </trkpt>
      <trkpt lat="43.6967" lon="6.7246">
        <ele>846.36</ele>
        <time>2017-11-12T14:26:56Z</time>
      </trkpt>
      <trkpt lat="43.69655" lon="6.72445">
        <ele>847.12</ele>
        <time>2017-11-12T14:27:12Z</time>
      </trkpt>
    </trkseg>
  </trk>
</gpx>